Amherst, Texas
Current Conditions -  °F | °C
As of 8:35 AM on Sunday 23 Nov 2014 (Local Time) from KPVW Reporting Station
Clear Clear  
Wind Chill: 13°   Ceiling: Unl
Heat Index: 13°   Visibility: 10mi
Dew Point: -5°   Wind: 25mph
Humidity: 30%   Direction: 270°W
Pressure: 29.55"   Gusts: 30mph
Location:  34.01°N, 102.42°W
Report Text: KPVW 231435Z AUTO 27022G26KT 10SM CLR 13/M05 A2955 RMK AO2 T01271048
Loading
Personal Weather Stations






























Interactive Weather Map New forecast layout! Learn more

10-Day Weather Forecast

Advertisements
Track Severe Weather on mobile